sensor_id;sensor_type;location;lat;lon;timestamp;pressure;altitude;pressure_sealevel;temperature;humidity
50977;BME280;36992;48.200;12.418;2023-02-14T00:00:23;98632.28;;;5.87;54.81
50977;BME280;36992;48.200;12.418;2023-02-14T00:02:49;98638.44;;;5.87;54.68
50977;BME280;36992;48.200;12.418;2023-02-14T00:05:17;98637.22;;;5.90;54.87
50977;BME280;36992;48.200;12.418;2023-02-14T00:07:43;98635.97;;;5.86;54.75
50977;BME280;36992;48.200;12.418;2023-02-14T00:10:10;98631.47;;;5.86;54.85
50977;BME280;36992;48.200;12.418;2023-02-14T00:12:37;98630.63;;;5.86;54.88
50977;BME280;36992;48.200;12.418;2023-02-14T00:15:04;98629.00;;;5.85;54.99
50977;BME280;36992;48.200;12.418;2023-02-14T00:17:50;98623.66;;;5.85;54.89
50977;BME280;36992;48.200;12.418;2023-02-14T00:20:18;98618.28;;;5.85;55.10
50977;BME280;36992;48.200;12.418;2023-02-14T00:22:45;98619.75;;;5.80;55.06
50977;BME280;36992;48.200;12.418;2023-02-14T00:25:12;98616.28;;;5.80;55.13
50977;BME280;36992;48.200;12.418;2023-02-14T00:27:38;98623.47;;;5.79;55.14
50977;BME280;36992;48.200;12.418;2023-02-14T00:30:07;98629.84;;;5.78;55.18
50977;BME280;36992;48.200;12.418;2023-02-14T00:32:36;98628.22;;;5.77;54.97
50977;BME280;36992;48.200;12.418;2023-02-14T00:35:03;98629.66;;;5.73;55.12
50977;BME280;36992;48.200;12.418;2023-02-14T00:37:32;98628.63;;;5.74;54.99
50977;BME280;36992;48.200;12.418;2023-02-14T00:39:58;98639.75;;;5.71;55.16
50977;BME280;36992;48.200;12.418;2023-02-14T00:42:25;98638.13;;;5.70;55.04
50977;BME280;36992;48.200;12.418;2023-02-14T00:44:51;98643.69;;;5.69;55.30
50977;BME280;36992;48.200;12.418;2023-02-14T00:47:18;98624.56;;;5.65;55.20
50977;BME280;36992;48.200;12.418;2023-02-14T00:49:44;98626.63;;;5.63;55.33
50977;BME280;36992;48.200;12.418;2023-02-14T00:52:11;98620.66;;;5.61;55.34
50977;BME280;36992;48.200;12.418;2023-02-14T00:54:39;98626.63;;;5.63;55.30
50977;BME280;36992;48.200;12.418;2023-02-14T00:57:05;98619.03;;;5.60;55.18
50977;BME280;36992;48.200;12.418;2023-02-14T00:59:32;98620.06;;;5.59;55.17
50977;BME280;36992;48.200;12.418;2023-02-14T01:01:58;98626.22;;;5.59;55.14
50977;BME280;36992;48.200;12.418;2023-02-14T01:04:25;98618.44;;;5.58;55.03
50977;BME280;36992;48.200;12.418;2023-02-14T01:06:51;98618.44;;;5.58;55.29
50977;BME280;36992;48.200;12.418;2023-02-14T01:09:18;98622.94;;;5.57;55.15
50977;BME280;36992;48.200;12.418;2023-02-14T01:11:46;98627.06;;;5.60;54.95
50977;BME280;36992;48.200;12.418;2023-02-14T01:14:12;98627.47;;;5.57;55.21
50977;BME280;36992;48.200;12.418;2023-02-14T01:16:39;98624.00;;;5.56;55.09
50977;BME280;36992;48.200;12.418;2023-02-14T01:19:05;98624.19;;;5.54;54.98
50977;BME280;36992;48.200;12.418;2023-02-14T01:21:33;98628.75;;;5.54;54.90
50977;BME280;36992;48.200;12.418;2023-02-14T01:24:02;98634.09;;;5.54;54.95
50977;BME280;36992;48.200;12.418;2023-02-14T01:26:29;98640.66;;;5.51;54.84
50977;BME280;36992;48.200;12.418;2023-02-14T01:28:57;98642.31;;;5.52;55.11
50977;BME280;36992;48.200;12.418;2023-02-14T01:31:27;98647.66;;;5.52;54.80
50977;BME280;36992;48.200;12.418;2023-02-14T01:33:54;98640.03;;;5.49;55.07
50977;BME280;36992;48.200;12.418;2023-02-14T01:36:23;98642.72;;;5.49;55.06
50977;BME280;36992;48.200;12.418;2023-02-14T01:38:50;98641.09;;;5.48;54.92
50977;BME280;36992;48.200;12.418;2023-02-14T01:41:18;98642.13;;;5.47;54.77
50977;BME280;36992;48.200;12.418;2023-02-14T01:43:53;98638.19;;;5.50;54.52
50977;BME280;36992;48.200;12.418;2023-02-14T01:46:21;98646.44;;;5.48;54.97
50977;BME280;36992;48.200;12.418;2023-02-14T01:48:48;98639.03;;;5.44;54.97
50977;BME280;36992;48.200;12.418;2023-02-14T01:51:17;98646.03;;;5.45;54.96
50977;BME280;36992;48.200;12.418;2023-02-14T01:53:45;98642.75;;;5.43;54.99
50977;BME280;36992;48.200;12.418;2023-02-14T01:56:17;98638.00;;;5.45;54.87
50977;BME280;36992;48.200;12.418;2023-02-14T01:58:51;98632.47;;;5.46;54.95
50977;BME280;36992;48.200;12.418;2023-02-14T02:01:19;98616.03;;;5.43;54.87
50977;BME280;36992;48.200;12.418;2023-02-14T02:03:50;98626.28;;;5.46;54.90
50977;BME280;36992;48.200;12.418;2023-02-14T02:06:22;98620.94;;;5.46;54.74
50977;BME280;36992;48.200;12.418;2023-02-14T02:08:59;98627.13;;;5.46;54.54
50977;BME280;36992;48.200;12.418;2023-02-14T02:11:28;98618.91;;;5.41;54.81
50977;BME280;36992;48.200;12.418;2023-02-14T02:13:55;98624.06;;;5.36;54.86
50977;BME280;36992;48.200;12.418;2023-02-14T02:16:39;98619.53;;;5.36;54.93
50977;BME280;36992;48.200;12.418;2023-02-14T02:22:29;98611.13;;;5.33;54.92
50977;BME280;36992;48.200;12.418;2023-02-14T02:25:10;98604.16;;;5.32;55.03
50977;BME280;36992;48.200;12.418;2023-02-14T02:28:10;98608.47;;;5.33;54.83
50977;BME280;36992;48.200;12.418;2023-02-14T02:30:56;98608.66;;;5.31;54.92
50977;BME280;36992;48.200;12.418;2023-02-14T02:36:50;98603.13;;;5.33;55.00
50977;BME280;36992;48.200;12.418;2023-02-14T02:39:28;98602.28;;;5.32;55.05
50977;BME280;36992;48.200;12.418;2023-02-14T02:42:04;98596.13;;;5.32;55.03
50977;BME280;36992;48.200;12.418;2023-02-14T02:44:41;98600.44;;;5.33;55.04
50977;BME280;36992;48.200;12.418;2023-02-14T02:47:16;98606.00;;;5.31;55.10
50977;BME280;36992;48.200;12.418;2023-02-14T02:49:54;98604.16;;;5.32;55.08
50977;BME280;36992;48.200;12.418;2023-02-14T02:52:41;98611.53;;;5.30;54.98
50977;BME280;36992;48.200;12.418;2023-02-14T02:55:35;98606.19;;;5.30;55.11
50977;BME280;36992;48.200;12.418;2023-02-14T02:58:19;98593.25;;;5.26;54.71
50977;BME280;36992;48.200;12.418;2023-02-14T03:00:49;98595.94;;;5.26;54.77
50977;BME280;36992;48.200;12.418;2023-02-14T03:03:18;98596.34;;;5.23;54.98
50977;BME280;36992;48.200;12.418;2023-02-14T03:06:03;98599.22;;;5.22;54.96
50977;BME280;36992;48.200;12.418;2023-02-14T03:08:31;98601.28;;;5.20;55.20
50977;BME280;36992;48.200;12.418;2023-02-14T03:10:58;98598.81;;;5.18;54.89
50977;BME280;36992;48.200;12.418;2023-02-14T03:13:55;98599.44;;;5.20;54.51
50977;BME280;36992;48.200;12.418;2023-02-14T03:16:33;98600.28;;;5.14;55.18
50977;BME280;36992;48.200;12.418;2023-02-14T03:19:33;98590.84;;;5.11;54.59
50977;BME280;36992;48.200;12.418;2023-02-14T03:22:07;98604.22;;;5.05;55.04
50977;BME280;36992;48.200;12.418;2023-02-14T03:24:45;98598.66;;;4.99;55.11
50977;BME280;36992;48.200;12.418;2023-02-14T03:27:15;98604.44;;;4.96;55.40
50977;BME280;36992;48.200;12.418;2023-02-14T03:29:52;98595.81;;;4.94;55.49
50977;BME280;36992;48.200;12.418;2023-02-14T03:32:28;98598.50;;;4.94;55.24
50977;BME280;36992;48.200;12.418;2023-02-14T03:35:05;98602.81;;;4.95;55.47
50977;BME280;36992;48.200;12.418;2023-02-14T03:37:37;98606.06;;;4.97;55.32
50977;BME280;36992;48.200;12.418;2023-02-14T03:40:09;98595.41;;;4.97;55.14
50977;BME280;36992;48.200;12.418;2023-02-14T03:42:41;98604.44;;;4.96;55.35
50977;BME280;36992;48.200;12.418;2023-02-14T03:45:13;98607.13;;;4.96;55.40
50977;BME280;36992;48.200;12.418;2023-02-14T03:47:43;98600.13;;;4.95;55.34
50977;BME280;36992;48.200;12.418;2023-02-14T03:50:13;98601.16;;;4.94;55.68
50977;BME280;36992;48.200;12.418;2023-02-14T03:52:42;98604.84;;;4.93;55.79
50977;BME280;36992;48.200;12.418;2023-02-14T03:55:14;98595.81;;;4.94;55.37
50977;BME280;36992;48.200;12.418;2023-02-14T03:57:46;98599.09;;;4.96;55.59
50977;BME280;36992;48.200;12.418;2023-02-14T04:00:17;98586.97;;;4.94;55.38
50977;BME280;36992;48.200;12.418;2023-02-14T04:02:47;98591.09;;;4.96;55.66
50977;BME280;36992;48.200;12.418;2023-02-14T04:05:17;98583.69;;;4.98;55.56
50977;BME280;36992;48.200;12.418;2023-02-14T04:07:46;98603.41;;;4.97;55.34
50977;BME280;36992;48.200;12.418;2023-02-14T04:10:16;98602.16;;;5.00;55.29
50977;BME280;36992;48.200;12.418;2023-02-14T04:12:42;98601.78;;;4.96;55.32
50977;BME280;36992;48.200;12.418;2023-02-14T04:15:10;98602.56;;;4.97;55.39
50977;BME280;36992;48.200;12.418;2023-02-14T04:17:36;98606.28;;;4.96;55.14
50977;BME280;36992;48.200;12.418;2023-02-14T04:20:20;98601.16;;;4.94;55.38
50977;BME280;36992;48.200;12.418;2023-02-14T04:22:47;98599.72;;;4.92;55.22
50977;BME280;36992;48.200;12.418;2023-02-14T04:25:17;98600.34;;;4.94;55.27
50977;BME280;36992;48.200;12.418;2023-02-14T04:27:44;98600.53;;;4.92;55.50
50977;BME280;36992;48.200;12.418;2023-02-14T04:30:11;98597.88;;;4.92;55.42
50977;BME280;36992;48.200;12.418;2023-02-14T04:32:39;98596.81;;;4.93;55.53
50977;BME280;36992;48.200;12.418;2023-02-14T04:35:06;98589.66;;;4.94;55.60
50977;BME280;36992;48.200;12.418;2023-02-14T04:37:33;98579.56;;;4.96;55.58
50977;BME280;36992;48.200;12.418;2023-02-14T04:39:59;98582.88;;;4.98;55.53
50977;BME280;36992;48.200;12.418;2023-02-14T04:42:27;98585.31;;;4.99;55.43
50977;BME280;36992;48.200;12.418;2023-02-14T04:44:54;98582.03;;;4.97;55.43
50977;BME280;36992;48.200;12.418;2023-02-14T04:47:20;98575.88;;;4.97;55.22
50977;BME280;36992;48.200;12.418;2023-02-14T04:49:47;98579.56;;;4.96;55.15
50977;BME280;36992;48.200;12.418;2023-02-14T04:52:13;98585.34;;;4.93;55.17
50977;BME280;36992;48.200;12.418;2023-02-14T04:54:40;98579.59;;;4.89;55.06
50977;BME280;36992;48.200;12.418;2023-02-14T04:57:06;98576.13;;;4.82;54.93
50977;BME280;36992;48.200;12.418;2023-02-14T04:59:34;98573.88;;;4.79;55.44
50977;BME280;36992;48.200;12.418;2023-02-14T05:02:01;98571.19;;;4.72;55.69
50977;BME280;36992;48.200;12.418;2023-02-14T05:04:28;98569.97;;;4.68;55.85
50977;BME280;36992;48.200;12.418;2023-02-14T05:06:54;98577.16;;;4.67;55.84
50977;BME280;36992;48.200;12.418;2023-02-14T05:09:21;98570.19;;;4.66;55.86
50977;BME280;36992;48.200;12.418;2023-02-14T05:11:47;98570.19;;;4.66;55.87
50977;BME280;36992;48.200;12.418;2023-02-14T05:14:14;98566.47;;;4.67;55.85
50977;BME280;36992;48.200;12.418;2023-02-14T05:16:43;98571.41;;;4.70;55.68
50977;BME280;36992;48.200;12.418;2023-02-14T05:19:10;98562.38;;;4.71;55.78
50977;BME280;36992;48.200;12.418;2023-02-14T05:21:36;98566.09;;;4.70;55.53
50977;BME280;36992;48.200;12.418;2023-02-14T05:24:03;98572.22;;;4.71;55.74
50977;BME280;36992;48.200;12.418;2023-02-14T05:26:30;98576.75;;;4.70;55.50
50977;BME280;36992;48.200;12.418;2023-02-14T05:28:56;98573.47;;;4.68;55.38
50977;BME280;36992;48.200;12.418;2023-02-14T05:31:23;98579.84;;;4.67;55.53
50977;BME280;36992;48.200;12.418;2023-02-14T05:33:51;98584.13;;;4.68;55.58
50977;BME280;36992;48.200;12.418;2023-02-14T05:36:17;98585.38;;;4.66;55.54
50977;BME280;36992;48.200;12.418;2023-02-14T05:38:44;98582.94;;;4.64;55.24
50977;BME280;36992;48.200;12.418;2023-02-14T05:41:10;98588.28;;;4.64;55.22
50977;BME280;36992;48.200;12.418;2023-02-14T05:43:37;98584.97;;;4.62;55.42
50977;BME280;36992;48.200;12.418;2023-02-14T05:46:04;98583.31;;;4.61;55.50
50977;BME280;36992;48.200;12.418;2023-02-14T05:48:31;98585.19;;;4.61;55.63
50977;BME280;36992;48.200;12.418;2023-02-14T05:51:03;98590.94;;;4.64;55.58
50977;BME280;36992;48.200;12.418;2023-02-14T05:53:30;98584.97;;;4.62;55.73
50977;BME280;36992;48.200;12.418;2023-02-14T05:55:56;98589.31;;;4.63;55.68
50977;BME280;36992;48.200;12.418;2023-02-14T05:58:23;98583.72;;;4.65;55.68
50977;BME280;36992;48.200;12.418;2023-02-14T06:00:49;98587.84;;;4.67;55.58
50977;BME280;36992;48.200;12.418;2023-02-14T06:03:16;98584.97;;;4.69;55.29
50977;BME280;36992;48.200;12.418;2023-02-14T06:05:42;98587.44;;;4.70;55.11
50977;BME280;36992;48.200;12.418;2023-02-14T06:08:10;98576.75;;;4.70;55.19
50977;BME280;36992;48.200;12.418;2023-02-14T06:10:37;98590.09;;;4.70;55.12
50977;BME280;36992;48.200;12.418;2023-02-14T06:13:03;98598.13;;;4.70;54.88
50977;BME280;36992;48.200;12.418;2023-02-14T06:15:33;98591.94;;;4.70;55.12
50977;BME280;36992;48.200;12.418;2023-02-14T06:18:00;98598.53;;;4.67;54.79
50977;BME280;36992;48.200;12.418;2023-02-14T06:20:26;98594.63;;;4.63;55.11
50977;BME280;36992;48.200;12.418;2023-02-14T06:22:53;98594.00;;;4.61;55.23
50977;BME280;36992;48.200;12.418;2023-02-14T06:25:22;98594.00;;;4.61;55.26
50977;BME280;36992;48.200;12.418;2023-02-14T06:27:50;98597.09;;;4.58;55.52
50977;BME280;36992;48.200;12.418;2023-02-14T06:30:17;98595.47;;;4.57;55.57
50977;BME280;36992;48.200;12.418;2023-02-14T06:32:43;98593.81;;;4.56;55.53
50977;BME280;36992;48.200;12.418;2023-02-14T06:35:10;98598.13;;;4.57;55.51
50977;BME280;36992;48.200;12.418;2023-02-14T06:37:37;98603.47;;;4.57;54.64
50977;BME280;36992;48.200;12.418;2023-02-14T06:40:06;98599.13;;;4.56;55.08
50977;BME280;36992;48.200;12.418;2023-02-14T06:42:34;98601.81;;;4.56;55.16
50977;BME280;36992;48.200;12.418;2023-02-14T06:45:01;98602.44;;;4.51;55.48
50977;BME280;36992;48.200;12.418;2023-02-14T06:47:27;98598.13;;;4.50;55.46
50977;BME280;36992;48.200;12.418;2023-02-14T06:49:54;98606.13;;;4.50;55.30
50977;BME280;36992;48.200;12.418;2023-02-14T06:52:20;98604.31;;;4.51;55.50
50977;BME280;36992;48.200;12.418;2023-02-14T06:54:47;98599.97;;;4.50;55.04
50977;BME280;36992;48.200;12.418;2023-02-14T06:57:13;98600.19;;;4.48;54.60
50977;BME280;36992;48.200;12.418;2023-02-14T06:59:41;98605.13;;;4.44;55.04
50977;BME280;36992;48.200;12.418;2023-02-14T07:02:08;98600.59;;;4.38;55.39
50977;BME280;36992;48.200;12.418;2023-02-14T07:04:35;98604.69;;;4.34;55.83
50977;BME280;36992;48.200;12.418;2023-02-14T07:07:03;98599.38;;;4.34;55.76
50977;BME280;36992;48.200;12.418;2023-02-14T07:09:29;98597.72;;;4.33;55.76
50977;BME280;36992;48.200;12.418;2023-02-14T07:11:56;98603.06;;;4.33;55.83
50977;BME280;36992;48.200;12.418;2023-02-14T07:14:22;98598.53;;;4.34;55.92
50977;BME280;36992;48.200;12.418;2023-02-14T07:16:50;98597.31;;;4.36;56.03
50977;BME280;36992;48.200;12.418;2023-02-14T07:19:17;98590.31;;;4.35;55.94
50977;BME280;36992;48.200;12.418;2023-02-14T07:21:43;98595.28;;;4.38;55.90
50977;BME280;36992;48.200;12.418;2023-02-14T07:24:10;98593.41;;;4.39;55.72
50977;BME280;36992;48.200;12.418;2023-02-14T07:26:36;98590.53;;;4.40;55.74
50977;BME280;36992;48.200;12.418;2023-02-14T07:29:03;98588.47;;;4.42;55.75
50977;BME280;36992;48.200;12.418;2023-02-14T07:31:29;98589.91;;;4.45;55.88
50977;BME280;36992;48.200;12.418;2023-02-14T07:33:57;98591.34;;;4.48;55.54
50977;BME280;36992;48.200;12.418;2023-02-14T07:36:25;98588.69;;;4.48;55.83
50977;BME280;36992;48.200;12.418;2023-02-14T07:38:52;98590.31;;;4.49;55.13
50977;BME280;36992;48.200;12.418;2023-02-14T07:41:20;98588.47;;;4.49;55.46
50977;BME280;36992;48.200;12.418;2023-02-14T07:43:47;98584.78;;;4.50;55.50
50977;BME280;36992;48.200;12.418;2023-02-14T07:46:13;98588.28;;;4.51;55.57
50977;BME280;36992;48.200;12.418;2023-02-14T07:48:41;98579.25;;;4.52;54.98
50977;BME280;36992;48.200;12.418;2023-02-14T07:51:09;98579.25;;;4.52;55.41
50977;BME280;36992;48.200;12.418;2023-02-14T07:53:35;98591.16;;;4.49;55.51
50977;BME280;36992;48.200;12.418;2023-02-14T07:56:02;98581.28;;;4.50;55.70
50977;BME280;36992;48.200;12.418;2023-02-14T07:58:29;98582.13;;;4.50;55.42
50977;BME280;36992;48.200;12.418;2023-02-14T08:00:55;98578.59;;;4.50;55.25
50977;BME280;36992;48.200;12.418;2023-02-14T08:03:22;98572.28;;;4.51;55.13
50977;BME280;36992;48.200;12.418;2023-02-14T08:05:48;98579.44;;;4.50;55.19
50977;BME280;36992;48.200;12.418;2023-02-14T08:08:24;98573.06;;;4.51;54.93
50977;BME280;36992;48.200;12.418;2023-02-14T08:10:51;98571.84;;;4.47;54.80
50977;BME280;36992;48.200;12.418;2023-02-14T08:13:17;98575.75;;;4.44;55.20
50977;BME280;36992;48.200;12.418;2023-02-14T08:15:43;98579.44;;;4.43;55.15
50977;BME280;36992;48.200;12.418;2023-02-14T08:18:27;98578.41;;;4.38;54.59
50977;BME280;36992;48.200;12.418;2023-02-14T08:20:53;98570.22;;;4.32;54.63
50977;BME280;36992;48.200;12.418;2023-02-14T08:23:20;98572.66;;;4.27;55.02
50977;BME280;36992;48.200;12.418;2023-02-14T08:25:48;98573.09;;;4.24;55.02
50977;BME280;36992;48.200;12.418;2023-02-14T08:28:16;98567.53;;;4.19;55.49
50977;BME280;36992;48.200;12.418;2023-02-14T08:30:43;98568.78;;;4.16;55.46
50977;BME280;36992;48.200;12.418;2023-02-14T08:33:10;98574.53;;;4.13;55.63
50977;BME280;36992;48.200;12.418;2023-02-14T08:35:37;98578.19;;;4.12;55.47
50977;BME280;36992;48.200;12.418;2023-02-14T08:38:04;98574.91;;;4.10;55.51
50977;BME280;36992;48.200;12.418;2023-02-14T08:40:30;98575.94;;;4.09;55.70
50977;BME280;36992;48.200;12.418;2023-02-14T08:42:59;98575.13;;;4.09;55.67
50977;BME280;36992;48.200;12.418;2023-02-14T08:45:26;98569.19;;;4.07;56.10
50977;BME280;36992;48.200;12.418;2023-02-14T08:47:52;98576.97;;;4.08;55.89
50977;BME280;36992;48.200;12.418;2023-02-14T08:50:19;98577.59;;;4.10;56.09
50977;BME280;36992;48.200;12.418;2023-02-14T08:52:46;98569.38;;;4.12;56.05
50977;BME280;36992;48.200;12.418;2023-02-14T08:55:12;98571.44;;;4.16;56.13
50977;BME280;36992;48.200;12.418;2023-02-14T08:57:39;98571.03;;;4.20;55.81
50977;BME280;36992;48.200;12.418;2023-02-14T09:00:08;98577.59;;;4.24;56.07
50977;BME280;36992;48.200;12.418;2023-02-14T09:02:35;98573.91;;;4.25;55.67
50977;BME280;36992;48.200;12.418;2023-02-14T09:05:01;98574.53;;;4.27;55.29
50977;BME280;36992;48.200;12.418;2023-02-14T09:07:28;98571.88;;;4.27;55.40
50977;BME280;36992;48.200;12.418;2023-02-14T09:09:54;98577.19;;;4.27;55.16
50977;BME280;36992;48.200;12.418;2023-02-14T09:12:21;98579.22;;;4.25;55.41
50977;BME280;36992;48.200;12.418;2023-02-14T09:14:47;98579.47;;;4.23;55.63
50977;BME280;36992;48.200;12.418;2023-02-14T09:17:15;98575.56;;;4.26;55.67
50977;BME280;36992;48.200;12.418;2023-02-14T09:19:42;98571.88;;;4.27;55.74
50977;BME280;36992;48.200;12.418;2023-02-14T09:22:10;98567.75;;;4.31;55.52
50977;BME280;36992;48.200;12.418;2023-02-14T09:24:38;98566.94;;;4.30;55.71
50977;BME280;36992;48.200;12.418;2023-02-14T09:27:06;98564.06;;;4.32;55.75
50977;BME280;36992;48.200;12.418;2023-02-14T09:29:33;98554.81;;;4.35;55.21
50977;BME280;36992;48.200;12.418;2023-02-14T09:32:01;98550.31;;;4.35;55.23
50977;BME280;36992;48.200;12.418;2023-02-14T09:34:30;98563.63;;;4.35;55.68
50977;BME280;36992;48.200;12.418;2023-02-14T09:37:15;98556.66;;;4.34;55.63
50977;BME280;36992;48.200;12.418;2023-02-14T09:39:42;98559.34;;;4.34;55.71
50977;BME280;36992;48.200;12.418;2023-02-14T09:42:18;98555.84;;;4.40;55.39
50977;BME280;36992;48.200;12.418;2023-02-14T09:44:48;98559.13;;;4.42;55.33
50977;BME280;36992;48.200;12.418;2023-02-14T09:47:20;98551.75;;;4.44;55.08
50977;BME280;36992;48.200;12.418;2023-02-14T09:49:50;98551.75;;;4.44;55.33
50977;BME280;36992;48.200;12.418;2023-02-14T09:52:21;98558.72;;;4.45;55.28
50977;BME280;36992;48.200;12.418;2023-02-14T09:54:54;98553.38;;;4.45;55.60
50977;BME280;36992;48.200;12.418;2023-02-14T09:57:26;98550.72;;;4.45;55.19
50977;BME280;36992;48.200;12.418;2023-02-14T10:00:02;98551.31;;;4.48;55.02
50977;BME280;36992;48.200;12.418;2023-02-14T10:02:39;98553.97;;;4.48;55.19
50977;BME280;36992;48.200;12.418;2023-02-14T10:05:13;98556.25;;;4.51;55.40
50977;BME280;36992;48.200;12.418;2023-02-14T10:07:59;98550.50;;;4.54;55.37
50977;BME280;36992;48.200;12.418;2023-02-14T10:10:34;98560.34;;;4.53;55.57
50977;BME280;36992;48.200;12.418;2023-02-14T10:13:09;98559.09;;;4.56;55.34
50977;BME280;36992;48.200;12.418;2023-02-14T10:15:39;98554.00;;;4.54;55.24
50977;BME280;36992;48.200;12.418;2023-02-14T10:18:12;98552.75;;;4.57;55.53
50977;BME280;36992;48.200;12.418;2023-02-14T10:20:43;98554.59;;;4.56;55.17
50977;BME280;36992;48.200;12.418;2023-02-14T10:23:23;98549.25;;;4.56;55.13
50977;BME280;36992;48.200;12.418;2023-02-14T10:25:56;98549.25;;;4.56;55.29
50977;BME280;36992;48.200;12.418;2023-02-14T10:28:29;98556.03;;;4.59;54.97
50977;BME280;36992;48.200;12.418;2023-02-14T10:31:06;98558.28;;;4.62;54.88
50977;BME280;36992;48.200;12.418;2023-02-14T10:33:37;98547.81;;;4.61;55.07
50977;BME280;36992;48.200;12.418;2023-02-14T10:36:15;98552.94;;;4.62;55.00
50977;BME280;36992;48.200;12.418;2023-02-14T10:38:49;98547.59;;;4.62;55.07
50977;BME280;36992;48.200;12.418;2023-02-14T10:41:27;98547.38;;;4.64;55.04
50977;BME280;36992;48.200;12.418;2023-02-14T10:44:11;98545.56;;;4.64;54.93
50977;BME280;36992;48.200;12.418;2023-02-14T10:46:47;98540.22;;;4.64;55.02
50977;BME280;36992;48.200;12.418;2023-02-14T10:49:27;98535.69;;;4.65;54.89
50977;BME280;36992;48.200;12.418;2023-02-14T10:51:59;98533.66;;;4.67;55.35
50977;BME280;36992;48.200;12.418;2023-02-14T10:54:32;98526.84;;;4.71;55.28
50977;BME280;36992;48.200;12.418;2023-02-14T10:57:06;98525.59;;;4.73;55.01
50977;BME280;36992;48.200;12.418;2023-02-14T10:59:44;98520.66;;;4.77;55.09
50977;BME280;36992;48.200;12.418;2023-02-14T11:02:15;98516.94;;;4.78;54.95
50977;BME280;36992;48.200;12.418;2023-02-14T11:04:44;98520.47;;;4.79;55.31
50977;BME280;36992;48.200;12.418;2023-02-14T11:07:14;98517.38;;;4.82;55.04
50977;BME280;36992;48.200;12.418;2023-02-14T11:09:41;98519.22;;;4.81;54.99
50977;BME280;36992;48.200;12.418;2023-02-14T11:12:08;98513.88;;;4.81;54.94
50977;BME280;36992;48.200;12.418;2023-02-14T11:14:37;98510.56;;;4.86;55.10
50977;BME280;36992;48.200;12.418;2023-02-14T11:17:26;98513.44;;;4.91;54.93
50977;BME280;36992;48.200;12.418;2023-02-14T11:19:56;98513.63;;;4.90;54.89
50977;BME280;36992;48.200;12.418;2023-02-14T11:22:29;98501.91;;;4.91;55.01
50977;BME280;36992;48.200;12.418;2023-02-14T11:25:03;98501.72;;;4.92;54.72
50977;BME280;36992;48.200;12.418;2023-02-14T11:27:30;98497.84;;;4.88;54.77
50977;BME280;36992;48.200;12.418;2023-02-14T11:29:58;98495.19;;;4.88;54.97
50977;BME280;36992;48.200;12.418;2023-02-14T11:32:28;98492.50;;;4.88;55.05
50977;BME280;36992;48.200;12.418;2023-02-14T11:34:59;98492.06;;;4.91;55.17
50977;BME280;36992;48.200;12.418;2023-02-14T11:37:29;98485.09;;;4.90;55.34
50977;BME280;36992;48.200;12.418;2023-02-14T11:39:58;98483.03;;;4.92;55.40
50977;BME280;36992;48.200;12.418;2023-02-14T11:42:40;98480.75;;;4.96;55.03
50977;BME280;36992;48.200;12.418;2023-02-14T11:45:25;98479.50;;;4.98;55.16
50977;BME280;36992;48.200;12.418;2023-02-14T11:48:06;98471.50;;;4.98;55.12
50977;BME280;36992;48.200;12.418;2023-02-14T11:50:35;98482.19;;;4.98;55.28
50977;BME280;36992;48.200;12.418;2023-02-14T11:53:09;98478.06;;;5.03;54.97
50977;BME280;36992;48.200;12.418;2023-02-14T11:55:36;98470.25;;;5.01;55.45
50977;BME280;36992;48.200;12.418;2023-02-14T11:58:05;98474.34;;;5.04;55.23
50977;BME280;36992;48.200;12.418;2023-02-14T12:00:34;98475.97;;;5.05;55.51
50977;BME280;36992;48.200;12.418;2023-02-14T12:03:02;98464.44;;;5.11;55.46
50977;BME280;36992;48.200;12.418;2023-02-14T12:05:33;98461.78;;;5.11;55.39
50977;BME280;36992;48.200;12.418;2023-02-14T12:08:02;98461.78;;;5.11;55.38
50977;BME280;36992;48.200;12.418;2023-02-14T12:10:32;98455.41;;;5.12;55.11
50977;BME280;36992;48.200;12.418;2023-02-14T12:13:00;98452.72;;;5.12;55.40
50977;BME280;36992;48.200;12.418;2023-02-14T12:15:31;98448.00;;;5.14;55.28
50977;BME280;36992;48.200;12.418;2023-02-14T12:23:55;98441.81;;;5.20;55.25
50977;BME280;36992;48.200;12.418;2023-02-14T12:26:30;98440.78;;;5.21;55.36
50977;BME280;36992;48.200;12.418;2023-02-14T12:29:03;98442.19;;;5.24;55.16
50977;BME280;36992;48.200;12.418;2023-02-14T12:31:31;98438.91;;;5.22;55.31
50977;BME280;36992;48.200;12.418;2023-02-14T12:33:57;98437.66;;;5.24;55.12
50977;BME280;36992;48.200;12.418;2023-02-14T12:36:41;98437.84;;;5.30;55.14
50977;BME280;36992;48.200;12.418;2023-02-14T12:39:11;98434.47;;;5.41;54.72
50977;BME280;36992;48.200;12.418;2023-02-14T12:41:49;98431.03;;;5.34;54.98
50977;BME280;36992;48.200;12.418;2023-02-14T12:44:33;98432.66;;;5.35;55.03
50977;BME280;36992;48.200;12.418;2023-02-14T12:47:15;98431.84;;;5.34;55.17
50977;BME280;36992;48.200;12.418;2023-02-14T12:50:02;98428.34;;;5.34;54.83
50977;BME280;36992;48.200;12.418;2023-02-14T12:52:51;98427.31;;;5.35;54.64
50977;BME280;36992;48.200;12.418;2023-02-14T12:55:42;98419.47;;;5.40;54.50
50977;BME280;36992;48.200;12.418;2023-02-14T12:58:20;98415.66;;;5.29;54.77
50977;BME280;36992;48.200;12.418;2023-02-14T13:00:57;98421.22;;;5.28;54.87
50977;BME280;36992;48.200;12.418;2023-02-14T13:03:39;98419.56;;;5.26;54.70
50977;BME280;36992;48.200;12.418;2023-02-14T13:06:14;98416.28;;;5.24;55.17
50977;BME280;36992;48.200;12.418;2023-02-14T13:08:53;98407.25;;;5.25;55.12
50977;BME280;36992;48.200;12.418;2023-02-14T13:11:34;98403.94;;;5.23;55.11
50977;BME280;36992;48.200;12.418;2023-02-14T13:14:12;98398.41;;;5.25;54.87
50977;BME280;36992;48.200;12.418;2023-02-14T13:16:47;98394.69;;;5.26;55.03
50977;BME280;36992;48.200;12.418;2023-02-14T13:19:24;98399.00;;;5.27;55.13
50977;BME280;36992;48.200;12.418;2023-02-14T13:21:57;98387.50;;;5.26;54.94
50977;BME280;36992;48.200;12.418;2023-02-14T13:24:28;98385.44;;;5.29;54.88
50977;BME280;36992;48.200;12.418;2023-02-14T13:26:59;98389.72;;;5.30;54.85
50977;BME280;36992;48.200;12.418;2023-02-14T13:29:33;98381.28;;;5.33;54.83